Terminal Aerodrome Forecast
Issued by NWS Wakefield, VA

Home | Current Version | Previous Version | Text Only | Print | Product List | Glossary On
Versions: 1 2 3 4 5 6 7 8 9 10 11 12 13 14 15 16 17 18 19 20
000
FTUS41 KAKQ 261700 RRA
TAFECG
TAF
KECG 261746Z 2618/2718 35008KT P6SM SCT100 BKN250
     FM270200 34012G19KT 4SM -RA BR OVC025
     FM271000 32015G23KT 4SM -SN BR OVC015
     FM271400 33012G19KT P6SM OVC025=

USA.gov is the U.S. government's official web portal to all federal, state and local government web resources and services.